createdAt,value
2018-06-29T00:01:41.760Z,8.60
2018-06-29T00:04:10.565Z,8.97
2018-06-29T00:06:39.462Z,9.33
2018-06-29T00:09:08.663Z,8.20
2018-06-29T00:11:37.350Z,8.90
2018-06-29T00:14:06.341Z,9.00
2018-06-29T00:16:35.184Z,8.47
2018-06-29T00:19:04.278Z,8.70
2018-06-29T00:21:33.055Z,9.40
2018-06-29T00:24:02.018Z,8.30
2018-06-29T00:26:30.898Z,9.10
2018-06-29T00:28:59.787Z,8.40
2018-06-29T00:31:28.350Z,8.10
2018-06-29T00:33:57.163Z,8.33
2018-06-29T00:36:25.959Z,8.97
2018-06-29T00:38:54.859Z,8.10
2018-06-29T00:41:23.529Z,8.13
2018-06-29T00:43:52.363Z,8.27
2018-06-29T00:46:21.147Z,8.30
2018-06-29T00:48:50.205Z,8.13
2018-06-29T00:51:19.101Z,8.50
2018-06-29T00:53:47.890Z,9.20
2018-06-29T00:56:16.703Z,9.40
2018-06-29T00:58:45.126Z,9.43
2018-06-29T01:01:13.849Z,9.17
2018-06-29T01:03:42.882Z,9.43
2018-06-29T01:06:11.847Z,9.20
2018-06-29T01:08:40.639Z,9.63
2018-06-29T01:11:09.910Z,9.70
2018-06-29T01:13:38.952Z,9.57
2018-06-29T01:16:07.751Z,9.40
2018-06-29T01:18:36.587Z,10.30
2018-06-29T01:21:05.597Z,9.83
2018-06-29T01:23:34.415Z,9.87
2018-06-29T01:26:03.227Z,9.57
2018-06-29T01:28:32.188Z,9.37
2018-06-29T01:31:01.107Z,9.73
2018-06-29T01:33:29.858Z,9.40
2018-06-29T01:35:58.608Z,10.23
2018-06-29T01:38:27.662Z,10.00
2018-06-29T01:40:56.554Z,10.00
2018-06-29T01:43:25.299Z,9.60
2018-06-29T01:45:54.195Z,10.00
2018-06-29T01:48:23.279Z,10.00
2018-06-29T01:50:52.397Z,9.87
2018-06-29T01:53:21.402Z,10.30
2018-06-29T01:55:50.271Z,10.50
2018-06-29T01:58:19.204Z,9.70
2018-06-29T02:00:47.975Z,9.97
2018-06-29T02:03:16.779Z,10.43
2018-06-29T02:05:45.733Z,10.03
2018-06-29T02:08:14.341Z,9.37
2018-06-29T02:10:43.267Z,10.70
2018-06-29T02:13:12.262Z,10.63
2018-06-29T02:15:41.181Z,10.00
2018-06-29T02:18:10.082Z,10.80
2018-06-29T02:20:38.943Z,10.63
2018-06-29T02:23:07.854Z,9.90
2018-06-29T02:25:36.558Z,10.30
2018-06-29T02:28:06.183Z,11.23
2018-06-29T02:30:35.158Z,9.37
2018-06-29T02:33:03.675Z,9.53
2018-06-29T02:35:32.535Z,9.57
2018-06-29T02:38:01.475Z,10.47
2018-06-29T02:40:30.434Z,10.70
2018-06-29T02:42:59.378Z,10.20
2018-06-29T02:45:28.152Z,10.77
2018-06-29T02:47:56.975Z,10.17
2018-06-29T02:50:25.963Z,10.43
2018-06-29T02:52:55.120Z,11.00
2018-06-29T02:55:24.131Z,10.13
2018-06-29T02:57:52.888Z,11.70
2018-06-29T03:00:21.692Z,11.60
2018-06-29T03:02:50.321Z,10.20
2018-06-29T03:05:19.195Z,10.80
2018-06-29T03:07:47.937Z,10.90
2018-06-29T03:10:16.711Z,11.03
2018-06-29T03:12:45.665Z,10.77
2018-06-29T03:15:14.740Z,10.60
2018-06-29T03:17:43.501Z,10.50
2018-06-29T03:20:12.112Z,10.47
2018-06-29T03:22:41.070Z,10.30
2018-06-29T03:25:09.819Z,10.53
2018-06-29T03:27:38.586Z,11.20
2018-06-29T03:30:07.422Z,10.97
2018-06-29T03:32:36.030Z,10.50
2018-06-29T03:35:05.013Z,10.60
2018-06-29T03:37:33.695Z,10.20
2018-06-29T03:40:03.364Z,10.77
2018-06-29T03:42:32.305Z,11.33
2018-06-29T03:45:00.893Z,10.27
2018-06-29T03:47:29.878Z,11.30
2018-06-29T03:49:58.915Z,11.57
2018-06-29T03:52:27.639Z,10.70
2018-06-29T03:54:56.431Z,11.40
2018-06-29T03:57:25.313Z,10.53
2018-06-29T03:59:54.400Z,10.83
2018-06-29T04:02:23.247Z,11.10
2018-06-29T04:04:52.055Z,11.70
2018-06-29T04:07:20.941Z,10.80
2018-06-29T04:09:49.329Z,10.73
2018-06-29T04:12:18.299Z,11.00
2018-06-29T04:14:47.173Z,11.40
2018-06-29T04:17:16.003Z,10.83
2018-06-29T04:19:44.630Z,11.00
2018-06-29T04:22:13.235Z,9.73
2018-06-29T04:24:42.182Z,10.93
2018-06-29T04:27:10.787Z,10.93
2018-06-29T04:29:39.751Z,11.53
2018-06-29T04:32:08.497Z,10.70
2018-06-29T04:34:37.114Z,10.87
2018-06-29T04:37:05.877Z,11.33
2018-06-29T04:39:34.748Z,10.33
2018-06-29T04:42:03.756Z,10.80
2018-06-29T04:44:32.661Z,12.50
2018-06-29T04:47:01.563Z,11.83
2018-06-29T04:49:30.426Z,11.97
2018-06-29T04:51:59.200Z,10.90
2018-06-29T04:54:27.845Z,11.10
2018-06-29T04:56:56.579Z,10.83
2018-06-29T04:59:25.523Z,10.67
2018-06-29T05:01:54.270Z,10.47
2018-06-29T05:04:23.132Z,10.40
2018-06-29T05:06:52.133Z,11.10
2018-06-29T05:09:20.924Z,10.13
2018-06-29T05:11:49.858Z,11.73
2018-06-29T05:14:18.755Z,10.67
2018-06-29T05:16:47.923Z,10.80
2018-06-29T05:19:17.606Z,11.00
2018-06-29T05:21:46.351Z,10.90
2018-06-29T05:24:15.184Z,10.20
2018-06-29T05:26:44.093Z,10.67
2018-06-29T05:29:13.143Z,11.17
2018-06-29T05:31:43.278Z,11.70
2018-06-29T05:34:12.051Z,11.40
2018-06-29T05:36:41.089Z,12.10
2018-06-29T05:39:11.291Z,11.00
2018-06-29T05:41:40.381Z,11.30
2018-06-29T05:44:09.259Z,11.10
2018-06-29T05:46:38.138Z,11.73
2018-06-29T05:49:07.970Z,12.10
2018-06-29T05:51:36.235Z,10.43
2018-06-29T05:54:05.101Z,11.70
2018-06-29T05:56:34.034Z,11.57
2018-06-29T05:59:03.120Z,11.43
2018-06-29T06:01:31.863Z,10.87
2018-06-29T06:04:00.583Z,11.23
2018-06-29T06:06:29.256Z,11.40
2018-06-29T06:08:58.172Z,11.43
2018-06-29T06:11:27.071Z,11.30
2018-06-29T06:13:55.813Z,12.10
2018-06-29T06:16:24.481Z,11.93
2018-06-29T06:20:04.630Z,12.17
2018-06-29T06:22:33.591Z,10.27
2018-06-29T06:25:02.470Z,11.60
2018-06-29T06:27:31.160Z,11.40
2018-06-29T06:29:59.937Z,11.40
2018-06-29T06:32:28.757Z,11.10
2018-06-29T06:34:57.760Z,11.37
2018-06-29T06:37:26.638Z,11.80
2018-06-29T06:39:55.673Z,11.83
2018-06-29T06:42:24.742Z,11.80
2018-06-29T06:44:53.711Z,12.20
2018-06-29T06:47:22.514Z,11.30
2018-06-29T06:49:51.273Z,12.40
2018-06-29T06:52:19.883Z,11.60
2018-06-29T06:54:48.838Z,12.20
2018-06-29T06:57:17.829Z,12.53
2018-06-29T06:59:46.641Z,12.93
2018-06-29T07:02:15.591Z,12.40
2018-06-29T07:04:44.397Z,12.30
2018-06-29T07:07:13.239Z,12.27
2018-06-29T07:09:42.230Z,12.73
2018-06-29T07:12:10.867Z,12.47
2018-06-29T07:14:39.825Z,13.63
2018-06-29T07:17:08.677Z,12.47
2018-06-29T07:19:37.544Z,12.37
2018-06-29T07:22:06.412Z,12.67
2018-06-29T07:24:35.192Z,11.97
2018-06-29T07:27:04.165Z,12.33
2018-06-29T07:29:32.936Z,11.77
2018-06-29T07:32:02.056Z,11.30
2018-06-29T07:34:30.896Z,11.27
2018-06-29T07:36:59.793Z,11.80
2018-06-29T07:39:28.693Z,11.17
2018-06-29T07:41:57.427Z,12.33
2018-06-29T07:44:26.278Z,11.70
2018-06-29T07:46:55.366Z,10.73
2018-06-29T07:49:24.281Z,11.60
2018-06-29T07:51:53.234Z,11.65
2018-06-29T07:54:21.944Z,10.20
2018-06-29T07:56:50.976Z,8.70
2018-06-29T07:59:19.806Z,8.60
2018-06-29T08:01:48.622Z,8.50
2018-06-29T08:04:17.314Z,9.40
2018-06-29T08:06:45.899Z,8.43
2018-06-29T08:09:14.936Z,8.40
2018-06-29T08:11:43.549Z,8.40
2018-06-29T08:14:12.688Z,8.10
2018-06-29T08:16:41.699Z,7.40
2018-06-29T08:19:10.698Z,6.87
2018-06-29T08:21:39.760Z,7.77
2018-06-29T08:24:09.166Z,7.60
2018-06-29T08:26:38.285Z,7.63
2018-06-29T08:29:07.066Z,7.20
2018-06-29T08:31:35.763Z,8.23
2018-06-29T08:34:04.912Z,8.40
2018-06-29T08:36:33.806Z,7.20
2018-06-29T08:39:02.727Z,8.43
2018-06-29T08:41:31.606Z,8.20
2018-06-29T08:44:00.394Z,8.23
2018-06-29T08:46:29.082Z,7.77
2018-06-29T08:48:57.700Z,8.60
2018-06-29T08:51:26.483Z,7.00
2018-06-29T08:53:54.931Z,7.13
2018-06-29T08:56:23.734Z,7.73
2018-06-29T08:58:52.625Z,6.80
2018-06-29T09:01:21.355Z,7.97
2018-06-29T09:03:50.301Z,8.10
2018-06-29T09:06:19.109Z,7.43
2018-06-29T09:08:47.769Z,7.70
2018-06-29T09:11:16.455Z,8.40
2018-06-29T09:13:45.154Z,7.73
2018-06-29T09:16:14.228Z,7.67
2018-06-29T09:18:43.250Z,8.67
2018-06-29T09:21:12.141Z,8.00
2018-06-29T09:23:40.414Z,8.87
2018-06-29T09:26:09.303Z,8.50
2018-06-29T09:28:37.985Z,7.10
2018-06-29T09:31:06.899Z,6.77
2018-06-29T09:33:35.477Z,8.10
2018-06-29T09:36:04.455Z,8.50
2018-06-29T09:38:33.219Z,8.50
2018-06-29T09:41:02.173Z,7.70
2018-06-29T09:43:31.211Z,8.13
2018-06-29T09:46:00.292Z,8.70
2018-06-29T09:48:29.401Z,8.40
2018-06-29T09:50:58.378Z,7.43
2018-06-29T09:53:27.090Z,6.67
2018-06-29T09:55:55.714Z,6.97
2018-06-29T09:58:24.799Z,7.00
2018-06-29T10:00:55.413Z,6.83
2018-06-29T10:03:22.545Z,7.00
2018-06-29T10:05:51.461Z,7.80
2018-06-29T10:08:20.503Z,6.33
2018-06-29T10:10:49.237Z,6.00
2018-06-29T10:13:18.159Z,6.93
2018-06-29T10:15:46.790Z,6.20
2018-06-29T10:18:15.499Z,5.83
2018-06-29T10:20:44.693Z,5.30
2018-06-29T10:23:13.485Z,5.43
2018-06-29T10:25:42.103Z,4.20
2018-06-29T10:28:13.459Z,4.80
2018-06-29T10:30:43.229Z,5.97
2018-06-29T10:33:11.936Z,6.17
2018-06-29T10:35:40.751Z,8.00
2018-06-29T10:38:09.610Z,6.30
2018-06-29T10:40:38.387Z,5.83
2018-06-29T10:43:07.316Z,6.60
2018-06-29T10:45:36.078Z,6.90
2018-06-29T10:48:05.241Z,6.07
2018-06-29T10:50:34.346Z,5.17
2018-06-29T10:53:03.182Z,7.17
2018-06-29T10:55:32.173Z,7.17
2018-06-29T10:58:01.127Z,7.30
2018-06-29T11:00:30.179Z,6.73
2018-06-29T11:02:58.804Z,6.70
2018-06-29T11:05:27.756Z,5.27
2018-06-29T11:07:56.584Z,6.37
2018-06-29T11:10:25.441Z,8.40
2018-06-29T11:12:54.153Z,7.50
2018-06-29T11:15:22.971Z,6.00
2018-06-29T11:17:51.577Z,5.20
2018-06-29T11:20:20.579Z,6.47
2018-06-29T11:22:49.335Z,6.20
2018-06-29T11:25:17.578Z,6.10
2018-06-29T11:27:46.499Z,6.00
2018-06-29T11:30:15.277Z,6.70
2018-06-29T11:32:44.179Z,7.47
2018-06-29T11:35:13.058Z,7.93
2018-06-29T11:37:41.661Z,7.55
2018-06-29T11:40:10.457Z,6.80
2018-06-29T11:42:39.059Z,9.33
2018-06-29T11:45:07.848Z,6.33
2018-06-29T11:47:36.665Z,7.60
2018-06-29T11:50:05.616Z,6.63
2018-06-29T11:52:34.771Z,9.37
2018-06-29T11:55:03.587Z,6.50
2018-06-29T11:57:32.449Z,8.00
2018-06-29T12:00:00.970Z,7.10
2018-06-29T12:02:29.910Z,8.80
2018-06-29T12:04:58.549Z,7.30
2018-06-29T12:07:27.503Z,9.17
2018-06-29T12:09:56.130Z,9.27
2018-06-29T12:12:24.827Z,9.77
2018-06-29T12:14:53.578Z,8.20
2018-06-29T12:17:22.294Z,7.40
2018-06-29T12:19:51.053Z,7.83
2018-06-29T12:22:19.923Z,6.87
2018-06-29T12:24:48.851Z,7.20
2018-06-29T12:27:17.735Z,8.93
2018-06-29T12:29:46.371Z,9.30
2018-06-29T12:32:15.104Z,10.07
2018-06-29T12:34:45.947Z,9.83
2018-06-29T12:37:14.819Z,8.70
2018-06-29T12:39:43.698Z,7.87
2018-06-29T12:42:12.399Z,8.90
2018-06-29T12:44:41.242Z,7.80
2018-06-29T12:47:10.197Z,8.20
2018-06-29T12:49:38.809Z,7.50
2018-06-29T12:52:07.869Z,6.53
2018-06-29T12:54:36.890Z,7.50
2018-06-29T12:57:05.874Z,7.47
2018-06-29T12:59:34.663Z,8.20
2018-06-29T13:02:03.449Z,9.80
2018-06-29T13:04:32.365Z,8.03
2018-06-29T13:07:01.104Z,9.43
2018-06-29T13:09:30.038Z,9.17
2018-06-29T13:11:58.902Z,7.97
2018-06-29T13:14:27.930Z,8.47
2018-06-29T13:16:56.789Z,7.43
2018-06-29T13:19:25.670Z,9.70
2018-06-29T13:21:54.785Z,9.23
2018-06-29T13:24:23.481Z,9.40
2018-06-29T13:26:52.338Z,8.20
2018-06-29T13:29:21.288Z,7.63
2018-06-29T13:31:50.221Z,7.93
2018-06-29T13:34:18.929Z,9.30
2018-06-29T13:36:47.734Z,10.73
2018-06-29T13:39:16.403Z,9.73
2018-06-29T13:41:45.338Z,8.10
2018-06-29T13:44:14.224Z,7.47
2018-06-29T13:46:43.066Z,7.27
2018-06-29T13:49:11.971Z,7.90
2018-06-29T13:51:40.980Z,7.60
2018-06-29T13:54:09.752Z,9.30
2018-06-29T13:56:38.735Z,11.17
2018-06-29T13:59:07.663Z,8.40
2018-06-29T14:01:36.536Z,7.63
2018-06-29T14:04:05.503Z,8.00
2018-06-29T14:06:34.386Z,8.73
2018-06-29T14:09:03.581Z,7.83
2018-06-29T14:11:32.477Z,6.37
2018-06-29T14:14:01.518Z,7.20
2018-06-29T14:16:30.383Z,8.00
2018-06-29T14:18:59.135Z,7.00
2018-06-29T14:21:27.713Z,6.57
2018-06-29T14:23:56.510Z,5.60
2018-06-29T14:26:25.317Z,4.77
2018-06-29T14:28:53.955Z,4.33
2018-06-29T14:31:22.739Z,4.50
2018-06-29T14:33:51.779Z,5.83
2018-06-29T14:36:20.609Z,6.20
2018-06-29T14:38:49.539Z,6.50
2018-06-29T14:41:18.445Z,4.70
2018-06-29T14:43:47.209Z,5.80
2018-06-29T14:46:16.049Z,7.90
2018-06-29T14:48:44.845Z,6.10
2018-06-29T14:51:13.814Z,6.50
2018-06-29T14:53:42.520Z,7.90
2018-06-29T14:56:11.330Z,8.20
2018-06-29T14:58:40.227Z,7.57
2018-06-29T15:01:08.879Z,7.33
2018-06-29T15:03:37.863Z,7.27
2018-06-29T15:06:06.839Z,6.77
2018-06-29T15:08:35.750Z,7.50
2018-06-29T15:11:04.459Z,6.13
2018-06-29T15:13:33.104Z,5.90
2018-06-29T15:16:02.301Z,5.80
2018-06-29T15:18:31.426Z,6.40
2018-06-29T15:21:00.156Z,6.90
2018-06-29T15:23:29.363Z,6.20
2018-06-29T15:25:58.346Z,7.30
2018-06-29T15:28:27.414Z,7.33
2018-06-29T15:30:56.459Z,6.80
2018-06-29T15:33:25.388Z,6.80
2018-06-29T15:35:54.235Z,7.00
2018-06-29T15:38:22.804Z,6.83
2018-06-29T15:40:51.527Z,7.60
2018-06-29T15:43:20.404Z,7.47
2018-06-29T15:45:49.182Z,6.63
2018-06-29T15:48:18.187Z,6.77
2018-06-29T15:50:46.940Z,6.20
2018-06-29T15:53:15.915Z,4.77
2018-06-29T15:55:44.619Z,4.67
2018-06-29T15:58:13.419Z,5.73
2018-06-29T16:00:42.431Z,5.87
2018-06-29T16:03:11.301Z,6.20
2018-06-29T16:05:40.298Z,7.50
2018-06-29T16:08:09.220Z,6.23
2018-06-29T16:10:37.910Z,5.80
2018-06-29T16:13:06.670Z,5.70
2018-06-29T16:15:35.409Z,6.33
2018-06-29T16:18:04.000Z,6.80
2018-06-29T16:20:32.684Z,7.77
2018-06-29T16:23:01.563Z,7.50
2018-06-29T16:25:30.622Z,7.47
2018-06-29T16:27:59.662Z,6.93
2018-06-29T16:30:28.493Z,6.77
2018-06-29T16:32:57.463Z,6.07
2018-06-29T16:35:26.403Z,6.17
2018-06-29T16:37:54.834Z,5.17
2018-06-29T16:40:23.590Z,5.83
2018-06-29T16:42:52.522Z,5.90
2018-06-29T16:45:21.658Z,5.53
2018-06-29T16:47:50.372Z,5.40
2018-06-29T16:50:19.272Z,4.47
2018-06-29T16:52:47.987Z,4.43
2018-06-29T16:55:18.319Z,4.50
2018-06-29T16:57:47.405Z,5.00
2018-06-29T17:00:16.145Z,4.13
2018-06-29T17:02:44.967Z,4.33
2018-06-29T17:05:13.994Z,6.40
2018-06-29T17:07:42.885Z,6.43
2018-06-29T17:10:11.589Z,6.67
2018-06-29T17:12:40.435Z,7.50
2018-06-29T17:15:09.656Z,6.73
2018-06-29T17:17:38.483Z,7.37
2018-06-29T17:20:07.270Z,7.10
2018-06-29T17:22:36.125Z,6.90
2018-06-29T17:25:04.860Z,8.13
2018-06-29T17:27:33.589Z,6.43
2018-06-29T17:30:02.457Z,7.33
2018-06-29T17:32:31.302Z,7.17
2018-06-29T17:35:00.009Z,7.20
2018-06-29T17:37:28.968Z,6.93
2018-06-29T17:39:57.832Z,6.97
2018-06-29T17:42:26.950Z,7.70
2018-06-29T17:44:55.775Z,7.50
2018-06-29T17:47:24.727Z,7.30
2018-06-29T17:49:53.655Z,7.40
2018-06-29T17:52:22.450Z,6.63
2018-06-29T17:54:51.327Z,7.03
2018-06-29T17:57:19.934Z,6.67
2018-06-29T17:59:48.911Z,7.23
2018-06-29T18:02:17.786Z,6.30
2018-06-29T18:04:46.530Z,6.17
2018-06-29T18:07:15.794Z,6.60
2018-06-29T18:09:44.705Z,6.60
2018-06-29T18:12:14.292Z,6.03
2018-06-29T18:14:43.114Z,5.63
2018-06-29T18:17:11.789Z,6.10
2018-06-29T18:19:40.966Z,6.43
2018-06-29T18:22:10.152Z,6.50
2018-06-29T18:24:38.737Z,6.27
2018-06-29T18:27:07.352Z,6.60
2018-06-29T18:29:36.093Z,7.00
2018-06-29T18:32:04.917Z,6.47
2018-06-29T18:34:33.748Z,6.67
2018-06-29T18:37:02.665Z,7.50
2018-06-29T18:39:31.616Z,7.50
2018-06-29T18:42:00.500Z,7.60
2018-06-29T18:58:42.961Z,10.40
2018-06-29T19:01:12.069Z,11.17
2018-06-29T19:03:40.850Z,10.30
2018-06-29T19:06:09.882Z,11.10
2018-06-29T19:08:43.303Z,11.70
2018-06-29T19:11:11.956Z,11.20
2018-06-29T19:13:40.587Z,11.57
2018-06-29T19:16:09.677Z,12.10
2018-06-29T19:18:38.796Z,12.20
2018-06-29T19:21:08.101Z,12.53
2018-06-29T19:23:36.989Z,12.90
2018-06-29T19:26:17.316Z,12.70
2018-06-29T19:28:46.415Z,12.77
2018-06-29T19:31:15.319Z,13.30
2018-06-29T19:33:44.179Z,12.93
2018-06-29T19:36:13.127Z,13.60
2018-06-29T19:38:42.102Z,13.57
2018-06-29T19:41:10.891Z,13.47
2018-06-29T19:43:39.752Z,13.20
2018-06-29T19:46:08.886Z,13.60
2018-06-29T19:48:37.774Z,13.90
2018-06-29T19:51:06.934Z,14.87
2018-06-29T19:53:35.701Z,14.87
2018-06-29T19:56:04.766Z,14.83
2018-06-29T19:58:33.486Z,15.30
2018-06-29T20:01:02.250Z,14.60
2018-06-29T20:03:31.071Z,15.23
2018-06-29T20:05:59.871Z,15.33
2018-06-29T20:08:28.798Z,14.93
2018-06-29T20:10:57.623Z,15.93
2018-06-29T20:13:26.470Z,16.53
2018-06-29T20:15:55.397Z,15.97
2018-06-29T20:18:24.194Z,15.87
2018-06-29T20:20:53.131Z,16.57
2018-06-29T20:23:21.972Z,17.20
2018-06-29T20:25:50.938Z,16.20
2018-06-29T20:28:19.689Z,17.50
2018-06-29T20:30:48.442Z,19.10
2018-06-29T20:33:17.347Z,19.23
2018-06-29T20:35:46.443Z,18.43
2018-06-29T20:38:15.493Z,19.17
2018-06-29T20:40:44.312Z,18.07
2018-06-29T20:43:12.978Z,16.03
2018-06-29T20:45:41.786Z,15.70
2018-06-29T20:48:10.619Z,14.57
2018-06-29T20:50:39.559Z,15.33
2018-06-29T20:53:08.722Z,14.93
2018-06-29T20:55:37.763Z,15.43
2018-06-29T20:58:06.836Z,15.33
2018-06-29T21:00:35.594Z,15.80
2018-06-29T21:03:04.563Z,16.70
2018-06-29T21:05:33.185Z,15.67
2018-06-29T21:08:02.018Z,15.50
2018-06-29T21:10:30.898Z,15.20
2018-06-29T21:12:59.478Z,14.87
2018-06-29T21:15:28.107Z,16.00
2018-06-29T21:17:57.169Z,15.27
2018-06-29T21:20:26.033Z,14.80
2018-06-29T21:22:55.087Z,16.10
2018-06-29T21:25:23.762Z,15.47
2018-06-29T21:27:52.607Z,15.10
2018-06-29T21:30:21.587Z,15.30
2018-06-29T21:32:50.521Z,15.37
2018-06-29T21:35:19.399Z,15.43
2018-06-29T21:37:48.267Z,15.33
2018-06-29T21:40:16.994Z,14.23
2018-06-29T21:42:45.664Z,15.40
2018-06-29T21:45:14.662Z,14.87
2018-06-29T21:47:43.565Z,14.27
2018-06-29T21:50:12.617Z,15.47
2018-06-29T21:52:41.393Z,15.37
2018-06-29T21:55:10.442Z,16.80
2018-06-29T21:57:39.111Z,16.13
2018-06-29T22:00:10.770Z,15.13
2018-06-29T22:02:39.948Z,15.73
2018-06-29T22:05:08.999Z,16.43
2018-06-29T22:07:37.506Z,15.80
2018-06-29T22:10:07.531Z,16.30
2018-06-29T22:12:36.257Z,15.63
2018-06-29T22:15:09.869Z,15.63
2018-06-29T22:17:38.670Z,13.80
2018-06-29T22:20:07.297Z,14.70
2018-06-29T22:22:36.295Z,14.90
2018-06-29T22:25:06.330Z,15.00
2018-06-29T22:27:35.029Z,14.23
2018-06-29T22:30:03.888Z,14.53
2018-06-29T22:32:32.720Z,15.17
2018-06-29T22:35:01.328Z,14.17
2018-06-29T22:37:30.463Z,14.37
2018-06-29T22:39:59.200Z,14.40
2018-06-29T22:42:27.955Z,14.57
2018-06-29T22:44:56.908Z,13.20
2018-06-29T22:47:25.629Z,14.30
2018-06-29T22:49:54.475Z,13.33
2018-06-29T22:52:22.743Z,13.33
2018-06-29T22:54:51.649Z,14.03
2018-06-29T22:57:20.489Z,14.90
2018-06-29T22:59:49.603Z,14.70
2018-06-29T23:02:18.530Z,14.70
2018-06-29T23:04:47.409Z,15.43
2018-06-29T23:07:16.374Z,14.60
2018-06-29T23:09:45.193Z,15.23
2018-06-29T23:12:14.187Z,15.67
2018-06-29T23:14:43.120Z,15.40
2018-06-29T23:17:11.750Z,16.37
2018-06-29T23:19:40.640Z,14.87
2018-06-29T23:22:09.630Z,16.80
2018-06-29T23:24:38.441Z,15.70
2018-06-29T23:27:07.403Z,16.33
2018-06-29T23:29:36.278Z,16.93
2018-06-29T23:32:05.310Z,14.93
2018-06-29T23:34:34.158Z,16.70
2018-06-29T23:37:03.015Z,16.20
2018-06-29T23:39:32.019Z,15.87
2018-06-29T23:42:00.858Z,16.47
2018-06-29T23:44:29.601Z,14.80
2018-06-29T23:46:58.436Z,15.80
2018-06-29T23:49:27.455Z,15.53
2018-06-29T23:51:56.404Z,15.10
2018-06-29T23:54:25.323Z,14.93
2018-06-29T23:56:54.452Z,16.00
2018-06-29T23:59:23.300Z,14.13
